sensor_id;sensor_type;location;lat;lon;timestamp;temperature;humidity
38604;DHT22;24924;50.054;8.790;2023-12-20T00:00:36;5.30;99.90
38604;DHT22;24924;50.054;8.790;2023-12-20T00:03:03;5.30;99.90
38604;DHT22;24924;50.054;8.790;2023-12-20T00:05:30;5.30;99.90
38604;DHT22;24924;50.054;8.790;2023-12-20T00:07:59;5.30;99.90
38604;DHT22;24924;50.054;8.790;2023-12-20T00:10:24;5.30;99.90
38604;DHT22;24924;50.054;8.790;2023-12-20T00:12:50;5.20;99.90
38604;DHT22;24924;50.054;8.790;2023-12-20T00:15:16;5.20;99.90
38604;DHT22;24924;50.054;8.790;2023-12-20T00:17:42;5.20;99.90
38604;DHT22;24924;50.054;8.790;2023-12-20T00:20:08;5.30;99.90
38604;DHT22;24924;50.054;8.790;2023-12-20T00:22:34;5.30;99.90
38604;DHT22;24924;50.054;8.790;2023-12-20T00:25:00;5.30;99.90
38604;DHT22;24924;50.054;8.790;2023-12-20T00:27:25;5.30;99.90
38604;DHT22;24924;50.054;8.790;2023-12-20T00:29:51;5.30;99.90
38604;DHT22;24924;50.054;8.790;2023-12-20T00:32:17;5.30;99.90
38604;DHT22;24924;50.054;8.790;2023-12-20T00:34:43;5.30;99.90
38604;DHT22;24924;50.054;8.790;2023-12-20T00:37:09;5.30;99.90
38604;DHT22;24924;50.054;8.790;2023-12-20T00:39:35;5.20;99.90
38604;DHT22;24924;50.054;8.790;2023-12-20T00:42:01;5.30;99.90
38604;DHT22;24924;50.054;8.790;2023-12-20T00:44:27;5.30;99.90
38604;DHT22;24924;50.054;8.790;2023-12-20T00:46:53;5.20;99.90
38604;DHT22;24924;50.054;8.790;2023-12-20T00:49:18;5.30;99.90
38604;DHT22;24924;50.054;8.790;2023-12-20T00:51:44;5.30;99.90
38604;DHT22;24924;50.054;8.790;2023-12-20T00:54:11;5.20;99.90
38604;DHT22;24924;50.054;8.790;2023-12-20T00:56:36;5.30;99.90
38604;DHT22;24924;50.054;8.790;2023-12-20T00:59:02;5.30;99.90
38604;DHT22;24924;50.054;8.790;2023-12-20T01:01:28;5.20;99.90
38604;DHT22;24924;50.054;8.790;2023-12-20T01:03:54;5.20;99.90
38604;DHT22;24924;50.054;8.790;2023-12-20T01:06:21;5.20;99.90
38604;DHT22;24924;50.054;8.790;2023-12-20T01:08:47;5.30;99.90
38604;DHT22;24924;50.054;8.790;2023-12-20T01:11:12;5.30;99.90
38604;DHT22;24924;50.054;8.790;2023-12-20T01:13:38;5.30;99.90
38604;DHT22;24924;50.054;8.790;2023-12-20T01:16:04;5.20;99.90
38604;DHT22;24924;50.054;8.790;2023-12-20T01:18:30;5.20;99.90
38604;DHT22;24924;50.054;8.790;2023-12-20T01:20:55;5.20;99.90
38604;DHT22;24924;50.054;8.790;2023-12-20T01:23:21;5.20;99.90
38604;DHT22;24924;50.054;8.790;2023-12-20T01:25:48;5.20;99.90
38604;DHT22;24924;50.054;8.790;2023-12-20T01:28:14;5.20;99.90
38604;DHT22;24924;50.054;8.790;2023-12-20T01:30:39;5.10;99.90
38604;DHT22;24924;50.054;8.790;2023-12-20T01:33:05;5.20;99.90
38604;DHT22;24924;50.054;8.790;2023-12-20T01:35:31;5.20;99.90
38604;DHT22;24924;50.054;8.790;2023-12-20T01:37:57;5.20;99.90
38604;DHT22;24924;50.054;8.790;2023-12-20T01:40:23;5.20;99.90
38604;DHT22;24924;50.054;8.790;2023-12-20T01:43:02;5.20;99.90
38604;DHT22;24924;50.054;8.790;2023-12-20T01:45:30;5.20;99.90
38604;DHT22;24924;50.054;8.790;2023-12-20T01:47:57;5.20;99.90
38604;DHT22;24924;50.054;8.790;2023-12-20T01:50:24;5.20;99.90
38604;DHT22;24924;50.054;8.790;2023-12-20T01:52:50;5.20;99.90
38604;DHT22;24924;50.054;8.790;2023-12-20T01:55:19;5.20;99.90
38604;DHT22;24924;50.054;8.790;2023-12-20T01:57:45;5.20;99.90
38604;DHT22;24924;50.054;8.790;2023-12-20T02:00:13;5.20;99.90
38604;DHT22;24924;50.054;8.790;2023-12-20T02:02:40;5.20;99.90
38604;DHT22;24924;50.054;8.790;2023-12-20T02:05:07;5.20;99.90
38604;DHT22;24924;50.054;8.790;2023-12-20T02:07:33;5.20;99.90
38604;DHT22;24924;50.054;8.790;2023-12-20T02:10:02;5.20;99.90
38604;DHT22;24924;50.054;8.790;2023-12-20T02:12:28;5.20;99.90
38604;DHT22;24924;50.054;8.790;2023-12-20T02:14:53;5.30;99.90
38604;DHT22;24924;50.054;8.790;2023-12-20T02:17:20;5.30;99.90
38604;DHT22;24924;50.054;8.790;2023-12-20T02:19:46;5.20;99.90
38604;DHT22;24924;50.054;8.790;2023-12-20T02:22:12;5.30;99.90
38604;DHT22;24924;50.054;8.790;2023-12-20T02:24:38;5.30;99.90
38604;DHT22;24924;50.054;8.790;2023-12-20T02:27:06;5.30;99.90
38604;DHT22;24924;50.054;8.790;2023-12-20T02:29:36;5.20;99.90
38604;DHT22;24924;50.054;8.790;2023-12-20T02:32:02;5.20;99.90
38604;DHT22;24924;50.054;8.790;2023-12-20T02:34:29;5.20;99.90
38604;DHT22;24924;50.054;8.790;2023-12-20T02:36:54;5.20;99.90
38604;DHT22;24924;50.054;8.790;2023-12-20T02:39:21;5.20;99.90
38604;DHT22;24924;50.054;8.790;2023-12-20T02:41:48;5.10;99.90
38604;DHT22;24924;50.054;8.790;2023-12-20T02:44:14;5.20;99.90
38604;DHT22;24924;50.054;8.790;2023-12-20T02:46:40;5.20;99.90
38604;DHT22;24924;50.054;8.790;2023-12-20T02:49:06;5.20;99.90
38604;DHT22;24924;50.054;8.790;2023-12-20T02:51:32;5.30;99.90
38604;DHT22;24924;50.054;8.790;2023-12-20T02:53:58;5.20;99.90
38604;DHT22;24924;50.054;8.790;2023-12-20T02:56:24;5.20;99.90
38604;DHT22;24924;50.054;8.790;2023-12-20T02:58:50;5.20;99.90
38604;DHT22;24924;50.054;8.790;2023-12-20T03:01:15;5.20;99.90
38604;DHT22;24924;50.054;8.790;2023-12-20T03:03:41;5.20;99.90
38604;DHT22;24924;50.054;8.790;2023-12-20T03:06:07;5.20;99.90
38604;DHT22;24924;50.054;8.790;2023-12-20T03:08:33;5.20;99.90
38604;DHT22;24924;50.054;8.790;2023-12-20T03:10:59;5.20;99.90
38604;DHT22;24924;50.054;8.790;2023-12-20T03:13:25;5.30;99.90
38604;DHT22;24924;50.054;8.790;2023-12-20T03:15:51;5.30;99.90
38604;DHT22;24924;50.054;8.790;2023-12-20T03:18:17;5.20;99.90
38604;DHT22;24924;50.054;8.790;2023-12-20T03:20:43;5.20;99.90
38604;DHT22;24924;50.054;8.790;2023-12-20T03:23:09;5.30;99.90
38604;DHT22;24924;50.054;8.790;2023-12-20T03:25:35;5.30;99.90
38604;DHT22;24924;50.054;8.790;2023-12-20T03:28:01;5.20;99.90
38604;DHT22;24924;50.054;8.790;2023-12-20T03:30:27;5.20;99.90
38604;DHT22;24924;50.054;8.790;2023-12-20T03:32:53;5.20;99.90
38604;DHT22;24924;50.054;8.790;2023-12-20T03:35:19;5.20;99.90
38604;DHT22;24924;50.054;8.790;2023-12-20T03:37:44;5.20;99.90
38604;DHT22;24924;50.054;8.790;2023-12-20T03:40:10;5.30;99.90
38604;DHT22;24924;50.054;8.790;2023-12-20T03:42:36;5.20;99.90
38604;DHT22;24924;50.054;8.790;2023-12-20T03:45:02;5.30;99.90
38604;DHT22;24924;50.054;8.790;2023-12-20T03:47:28;5.30;99.90
38604;DHT22;24924;50.054;8.790;2023-12-20T03:49:54;5.30;99.90
38604;DHT22;24924;50.054;8.790;2023-12-20T03:52:20;5.30;99.90
38604;DHT22;24924;50.054;8.790;2023-12-20T03:54:45;5.30;99.90
38604;DHT22;24924;50.054;8.790;2023-12-20T03:57:11;5.30;99.90
38604;DHT22;24924;50.054;8.790;2023-12-20T03:59:38;5.30;99.90
38604;DHT22;24924;50.054;8.790;2023-12-20T04:02:04;5.30;99.90
38604;DHT22;24924;50.054;8.790;2023-12-20T04:04:30;5.30;99.90
38604;DHT22;24924;50.054;8.790;2023-12-20T04:06:56;5.30;99.90
38604;DHT22;24924;50.054;8.790;2023-12-20T04:09:21;5.30;99.90
38604;DHT22;24924;50.054;8.790;2023-12-20T04:11:47;5.40;99.90
38604;DHT22;24924;50.054;8.790;2023-12-20T04:14:13;5.40;99.90
38604;DHT22;24924;50.054;8.790;2023-12-20T04:16:39;5.40;99.90
38604;DHT22;24924;50.054;8.790;2023-12-20T04:19:05;5.30;99.90
38604;DHT22;24924;50.054;8.790;2023-12-20T04:21:31;5.30;99.90
38604;DHT22;24924;50.054;8.790;2023-12-20T04:23:57;5.40;99.90
38604;DHT22;24924;50.054;8.790;2023-12-20T04:26:23;5.40;99.90
38604;DHT22;24924;50.054;8.790;2023-12-20T04:28:49;5.30;99.90
38604;DHT22;24924;50.054;8.790;2023-12-20T04:31:14;5.40;99.90
38604;DHT22;24924;50.054;8.790;2023-12-20T04:33:40;5.30;99.90
38604;DHT22;24924;50.054;8.790;2023-12-20T04:36:06;5.30;99.90
38604;DHT22;24924;50.054;8.790;2023-12-20T04:38:32;5.40;99.90
38604;DHT22;24924;50.054;8.790;2023-12-20T04:40:58;5.30;99.90
38604;DHT22;24924;50.054;8.790;2023-12-20T04:43:24;5.30;99.90
38604;DHT22;24924;50.054;8.790;2023-12-20T04:45:50;5.30;99.90
38604;DHT22;24924;50.054;8.790;2023-12-20T04:48:16;5.30;99.90
38604;DHT22;24924;50.054;8.790;2023-12-20T04:50:41;5.30;99.90
38604;DHT22;24924;50.054;8.790;2023-12-20T04:53:07;5.40;99.90
38604;DHT22;24924;50.054;8.790;2023-12-20T04:55:33;5.30;99.90
38604;DHT22;24924;50.054;8.790;2023-12-20T04:57:59;5.30;99.90
38604;DHT22;24924;50.054;8.790;2023-12-20T05:00:25;5.30;99.90
38604;DHT22;24924;50.054;8.790;2023-12-20T05:02:51;5.30;99.90
38604;DHT22;24924;50.054;8.790;2023-12-20T05:05:17;5.30;99.90
38604;DHT22;24924;50.054;8.790;2023-12-20T05:07:44;5.30;99.90
38604;DHT22;24924;50.054;8.790;2023-12-20T05:10:10;5.40;99.90
38604;DHT22;24924;50.054;8.790;2023-12-20T05:12:35;5.20;99.90
38604;DHT22;24924;50.054;8.790;2023-12-20T05:15:01;5.20;99.90
38604;DHT22;24924;50.054;8.790;2023-12-20T05:17:27;5.30;99.90
38604;DHT22;24924;50.054;8.790;2023-12-20T05:19:53;5.20;99.90
38604;DHT22;24924;50.054;8.790;2023-12-20T05:22:19;5.20;99.90
38604;DHT22;24924;50.054;8.790;2023-12-20T05:24:46;5.20;99.90
38604;DHT22;24924;50.054;8.790;2023-12-20T05:27:11;5.20;99.90
38604;DHT22;24924;50.054;8.790;2023-12-20T05:29:37;5.20;99.90
38604;DHT22;24924;50.054;8.790;2023-12-20T05:32:03;5.20;99.90
38604;DHT22;24924;50.054;8.790;2023-12-20T05:34:30;5.00;99.90
38604;DHT22;24924;50.054;8.790;2023-12-20T05:36:57;5.10;99.90
38604;DHT22;24924;50.054;8.790;2023-12-20T05:39:23;5.10;99.90
38604;DHT22;24924;50.054;8.790;2023-12-20T05:41:49;5.10;99.90
38604;DHT22;24924;50.054;8.790;2023-12-20T05:44:14;5.10;99.90
38604;DHT22;24924;50.054;8.790;2023-12-20T05:46:40;5.20;99.90
38604;DHT22;24924;50.054;8.790;2023-12-20T05:49:06;5.10;99.90
38604;DHT22;24924;50.054;8.790;2023-12-20T05:51:32;5.00;99.90
38604;DHT22;24924;50.054;8.790;2023-12-20T05:53:58;5.00;99.90
38604;DHT22;24924;50.054;8.790;2023-12-20T05:56:24;5.00;99.90
38604;DHT22;24924;50.054;8.790;2023-12-20T05:58:50;5.10;99.90
38604;DHT22;24924;50.054;8.790;2023-12-20T06:01:16;5.00;99.90
38604;DHT22;24924;50.054;8.790;2023-12-20T06:03:45;5.00;99.90
38604;DHT22;24924;50.054;8.790;2023-12-20T06:06:11;5.10;99.90
38604;DHT22;24924;50.054;8.790;2023-12-20T06:08:38;5.10;99.90
38604;DHT22;24924;50.054;8.790;2023-12-20T06:11:04;5.10;99.90
38604;DHT22;24924;50.054;8.790;2023-12-20T06:13:31;4.90;99.90
38604;DHT22;24924;50.054;8.790;2023-12-20T06:15:57;5.00;99.90
38604;DHT22;24924;50.054;8.790;2023-12-20T06:18:23;5.10;99.90
38604;DHT22;24924;50.054;8.790;2023-12-20T06:20:50;5.00;99.90
38604;DHT22;24924;50.054;8.790;2023-12-20T06:23:16;4.90;99.90
38604;DHT22;24924;50.054;8.790;2023-12-20T06:25:41;4.90;99.90
38604;DHT22;24924;50.054;8.790;2023-12-20T06:28:07;4.80;99.90
38604;DHT22;24924;50.054;8.790;2023-12-20T06:30:33;4.90;99.90
38604;DHT22;24924;50.054;8.790;2023-12-20T06:32:59;5.00;99.90
38604;DHT22;24924;50.054;8.790;2023-12-20T06:35:25;5.00;99.90
38604;DHT22;24924;50.054;8.790;2023-12-20T06:37:51;5.00;99.90
38604;DHT22;24924;50.054;8.790;2023-12-20T06:40:17;4.90;99.90
38604;DHT22;24924;50.054;8.790;2023-12-20T06:42:44;5.00;99.90
38604;DHT22;24924;50.054;8.790;2023-12-20T06:45:10;4.80;99.90
38604;DHT22;24924;50.054;8.790;2023-12-20T06:47:36;4.90;99.90
38604;DHT22;24924;50.054;8.790;2023-12-20T06:50:01;4.60;99.90
38604;DHT22;24924;50.054;8.790;2023-12-20T06:52:27;4.60;99.90
38604;DHT22;24924;50.054;8.790;2023-12-20T06:54:53;4.60;99.90
38604;DHT22;24924;50.054;8.790;2023-12-20T06:57:19;4.60;99.90
38604;DHT22;24924;50.054;8.790;2023-12-20T06:59:45;4.50;99.90
38604;DHT22;24924;50.054;8.790;2023-12-20T07:02:11;4.80;99.90
38604;DHT22;24924;50.054;8.790;2023-12-20T07:04:40;4.80;99.90
38604;DHT22;24924;50.054;8.790;2023-12-20T07:07:06;4.80;99.90
38604;DHT22;24924;50.054;8.790;2023-12-20T07:09:33;4.80;99.90
38604;DHT22;24924;50.054;8.790;2023-12-20T07:11:59;4.90;99.90
38604;DHT22;24924;50.054;8.790;2023-12-20T07:14:25;5.30;99.90
38604;DHT22;24924;50.054;8.790;2023-12-20T07:16:51;4.90;99.90
38604;DHT22;24924;50.054;8.790;2023-12-20T07:19:16;5.00;99.90
38604;DHT22;24924;50.054;8.790;2023-12-20T07:21:42;5.00;99.90
38604;DHT22;24924;50.054;8.790;2023-12-20T07:24:08;4.90;99.90
38604;DHT22;24924;50.054;8.790;2023-12-20T07:26:35;5.00;99.90
38604;DHT22;24924;50.054;8.790;2023-12-20T07:29:00;4.90;99.90
38604;DHT22;24924;50.054;8.790;2023-12-20T07:31:26;5.00;99.90
38604;DHT22;24924;50.054;8.790;2023-12-20T07:33:52;5.00;99.90
38604;DHT22;24924;50.054;8.790;2023-12-20T07:36:19;5.00;99.90
38604;DHT22;24924;50.054;8.790;2023-12-20T07:38:45;4.90;99.90
38604;DHT22;24924;50.054;8.790;2023-12-20T07:41:11;4.90;99.90
38604;DHT22;24924;50.054;8.790;2023-12-20T07:43:37;4.90;99.90
38604;DHT22;24924;50.054;8.790;2023-12-20T07:46:07;4.90;99.90
38604;DHT22;24924;50.054;8.790;2023-12-20T07:48:34;4.90;99.90
38604;DHT22;24924;50.054;8.790;2023-12-20T07:51:01;4.90;99.90
38604;DHT22;24924;50.054;8.790;2023-12-20T07:53:27;4.90;99.90
38604;DHT22;24924;50.054;8.790;2023-12-20T07:55:53;4.80;99.90
38604;DHT22;24924;50.054;8.790;2023-12-20T07:58:20;4.90;99.90
38604;DHT22;24924;50.054;8.790;2023-12-20T08:00:45;4.80;99.90
38604;DHT22;24924;50.054;8.790;2023-12-20T08:03:11;4.80;99.90
38604;DHT22;24924;50.054;8.790;2023-12-20T08:05:38;4.80;99.90
38604;DHT22;24924;50.054;8.790;2023-12-20T08:08:06;4.80;99.90
38604;DHT22;24924;50.054;8.790;2023-12-20T08:10:33;4.80;99.90
38604;DHT22;24924;50.054;8.790;2023-12-20T08:12:59;4.80;99.90
38604;DHT22;24924;50.054;8.790;2023-12-20T08:15:24;4.80;99.90
38604;DHT22;24924;50.054;8.790;2023-12-20T08:17:50;4.90;99.90
38604;DHT22;24924;50.054;8.790;2023-12-20T08:20:19;5.00;99.90
38604;DHT22;24924;50.054;8.790;2023-12-20T08:22:45;5.00;99.90
38604;DHT22;24924;50.054;8.790;2023-12-20T08:25:10;5.00;99.90
38604;DHT22;24924;50.054;8.790;2023-12-20T08:27:39;5.10;99.90
38604;DHT22;24924;50.054;8.790;2023-12-20T08:30:06;5.10;99.90
38604;DHT22;24924;50.054;8.790;2023-12-20T08:32:31;5.10;99.90
38604;DHT22;24924;50.054;8.790;2023-12-20T08:34:57;5.20;99.90
38604;DHT22;24924;50.054;8.790;2023-12-20T08:37:24;5.20;99.90
38604;DHT22;24924;50.054;8.790;2023-12-20T08:39:49;5.10;99.90
38604;DHT22;24924;50.054;8.790;2023-12-20T08:42:15;5.20;99.90
38604;DHT22;24924;50.054;8.790;2023-12-20T08:44:41;5.20;99.90
38604;DHT22;24924;50.054;8.790;2023-12-20T08:47:06;5.20;99.90
38604;DHT22;24924;50.054;8.790;2023-12-20T08:49:32;5.30;99.90
38604;DHT22;24924;50.054;8.790;2023-12-20T08:51:58;5.40;99.90
38604;DHT22;24924;50.054;8.790;2023-12-20T08:54:24;5.40;99.90
38604;DHT22;24924;50.054;8.790;2023-12-20T08:56:50;5.40;99.90
38604;DHT22;24924;50.054;8.790;2023-12-20T08:59:15;5.50;99.90
38604;DHT22;24924;50.054;8.790;2023-12-20T09:01:41;5.70;99.90
38604;DHT22;24924;50.054;8.790;2023-12-20T09:04:07;5.70;99.90
38604;DHT22;24924;50.054;8.790;2023-12-20T09:06:33;5.70;99.90
38604;DHT22;24924;50.054;8.790;2023-12-20T09:08:58;6.80;99.90
38604;DHT22;24924;50.054;8.790;2023-12-20T09:11:24;5.70;99.90
38604;DHT22;24924;50.054;8.790;2023-12-20T09:13:50;5.80;99.90
38604;DHT22;24924;50.054;8.790;2023-12-20T09:16:16;5.70;99.90
38604;DHT22;24924;50.054;8.790;2023-12-20T09:18:42;5.70;99.90
38604;DHT22;24924;50.054;8.790;2023-12-20T09:21:08;5.70;99.90
38604;DHT22;24924;50.054;8.790;2023-12-20T09:23:33;5.80;99.90
38604;DHT22;24924;50.054;8.790;2023-12-20T09:25:59;5.80;99.90
38604;DHT22;24924;50.054;8.790;2023-12-20T09:28:25;5.80;99.90
38604;DHT22;24924;50.054;8.790;2023-12-20T09:30:51;5.80;99.90
38604;DHT22;24924;50.054;8.790;2023-12-20T09:33:17;5.80;99.90
38604;DHT22;24924;50.054;8.790;2023-12-20T09:35:42;5.80;99.90
38604;DHT22;24924;50.054;8.790;2023-12-20T09:38:09;5.80;99.90
38604;DHT22;24924;50.054;8.790;2023-12-20T09:40:36;5.90;99.90
38604;DHT22;24924;50.054;8.790;2023-12-20T09:43:14;5.90;99.90
38604;DHT22;24924;50.054;8.790;2023-12-20T09:45:40;5.90;99.90
38604;DHT22;24924;50.054;8.790;2023-12-20T09:48:07;5.90;99.90
38604;DHT22;24924;50.054;8.790;2023-12-20T09:50:36;6.00;99.90
38604;DHT22;24924;50.054;8.790;2023-12-20T09:53:02;6.00;99.90
38604;DHT22;24924;50.054;8.790;2023-12-20T09:55:30;6.00;99.90
38604;DHT22;24924;50.054;8.790;2023-12-20T09:57:57;6.10;99.90
38604;DHT22;24924;50.054;8.790;2023-12-20T10:00:23;6.10;99.90
38604;DHT22;24924;50.054;8.790;2023-12-20T10:05:17;6.20;99.90
38604;DHT22;24924;50.054;8.790;2023-12-20T10:07:46;6.20;99.90
38604;DHT22;24924;50.054;8.790;2023-12-20T10:10:13;6.30;99.90
38604;DHT22;24924;50.054;8.790;2023-12-20T10:12:39;6.30;99.90
38604;DHT22;24924;50.054;8.790;2023-12-20T10:15:06;6.50;99.90
38604;DHT22;24924;50.054;8.790;2023-12-20T10:17:31;6.50;99.90
38604;DHT22;24924;50.054;8.790;2023-12-20T10:19:58;6.40;99.90
38604;DHT22;24924;50.054;8.790;2023-12-20T10:22:24;6.50;99.90
38604;DHT22;24924;50.054;8.790;2023-12-20T10:24:50;6.50;99.90
38604;DHT22;24924;50.054;8.790;2023-12-20T10:27:18;6.60;99.90
38604;DHT22;24924;50.054;8.790;2023-12-20T10:29:45;6.60;99.90
38604;DHT22;24924;50.054;8.790;2023-12-20T10:32:25;6.80;99.90
38604;DHT22;24924;50.054;8.790;2023-12-20T10:34:52;6.90;99.90
38604;DHT22;24924;50.054;8.790;2023-12-20T10:37:18;6.90;99.90
38604;DHT22;24924;50.054;8.790;2023-12-20T10:39:44;7.00;99.90
38604;DHT22;24924;50.054;8.790;2023-12-20T10:42:14;7.00;99.90
38604;DHT22;24924;50.054;8.790;2023-12-20T10:44:41;7.00;99.90
38604;DHT22;24924;50.054;8.790;2023-12-20T10:47:09;7.10;99.90
38604;DHT22;24924;50.054;8.790;2023-12-20T10:49:37;7.40;99.90
38604;DHT22;24924;50.054;8.790;2023-12-20T10:52:05;8.00;99.90
38604;DHT22;24924;50.054;8.790;2023-12-20T10:54:31;8.90;99.90
38604;DHT22;24924;50.054;8.790;2023-12-20T10:56:58;8.90;99.90
38604;DHT22;24924;50.054;8.790;2023-12-20T10:59:24;9.20;99.90
38604;DHT22;24924;50.054;8.790;2023-12-20T11:01:50;8.60;99.90
38604;DHT22;24924;50.054;8.790;2023-12-20T11:04:34;8.40;99.90
38604;DHT22;24924;50.054;8.790;2023-12-20T11:07:25;8.40;99.90
38604;DHT22;24924;50.054;8.790;2023-12-20T11:10:13;8.10;99.90
38604;DHT22;24924;50.054;8.790;2023-12-20T11:12:57;8.20;99.90
38604;DHT22;24924;50.054;8.790;2023-12-20T11:15:24;8.20;99.90
38604;DHT22;24924;50.054;8.790;2023-12-20T11:17:55;8.30;99.90
38604;DHT22;24924;50.054;8.790;2023-12-20T11:20:23;8.50;99.90
38604;DHT22;24924;50.054;8.790;2023-12-20T11:22:53;8.00;99.90
38604;DHT22;24924;50.054;8.790;2023-12-20T11:25:19;7.90;99.90
38604;DHT22;24924;50.054;8.790;2023-12-20T11:28:08;8.00;99.90
38604;DHT22;24924;50.054;8.790;2023-12-20T11:30:52;7.90;99.90
38604;DHT22;24924;50.054;8.790;2023-12-20T11:33:22;7.80;99.90
38604;DHT22;24924;50.054;8.790;2023-12-20T11:35:48;8.10;99.90
38604;DHT22;24924;50.054;8.790;2023-12-20T11:38:14;8.10;99.90
38604;DHT22;24924;50.054;8.790;2023-12-20T11:40:42;8.10;99.90
38604;DHT22;24924;50.054;8.790;2023-12-20T11:43:08;8.00;99.90
38604;DHT22;24924;50.054;8.790;2023-12-20T11:45:34;7.70;99.90
38604;DHT22;24924;50.054;8.790;2023-12-20T11:48:03;7.60;99.90
38604;DHT22;24924;50.054;8.790;2023-12-20T11:50:30;7.40;99.90
38604;DHT22;24924;50.054;8.790;2023-12-20T11:52:56;7.50;99.90
38604;DHT22;24924;50.054;8.790;2023-12-20T11:55:23;7.30;99.90
38604;DHT22;24924;50.054;8.790;2023-12-20T11:57:52;7.20;99.90
38604;DHT22;24924;50.054;8.790;2023-12-20T12:00:18;7.20;99.90
38604;DHT22;24924;50.054;8.790;2023-12-20T12:02:55;7.20;99.90
38604;DHT22;24924;50.054;8.790;2023-12-20T12:05:22;7.20;99.90
38604;DHT22;24924;50.054;8.790;2023-12-20T12:07:47;7.20;99.90
38604;DHT22;24924;50.054;8.790;2023-12-20T12:10:14;7.20;99.90
38604;DHT22;24924;50.054;8.790;2023-12-20T12:12:39;7.10;99.90
38604;DHT22;24924;50.054;8.790;2023-12-20T12:15:06;7.20;99.90
38604;DHT22;24924;50.054;8.790;2023-12-20T12:17:32;7.20;99.90
38604;DHT22;24924;50.054;8.790;2023-12-20T12:20:04;7.20;99.90
38604;DHT22;24924;50.054;8.790;2023-12-20T12:22:30;7.30;99.90
38604;DHT22;24924;50.054;8.790;2023-12-20T12:24:59;7.30;99.90
38604;DHT22;24924;50.054;8.790;2023-12-20T12:27:27;7.40;99.90
38604;DHT22;24924;50.054;8.790;2023-12-20T12:30:04;7.40;99.90
38604;DHT22;24924;50.054;8.790;2023-12-20T12:32:30;7.40;99.90
38604;DHT22;24924;50.054;8.790;2023-12-20T12:34:56;7.30;99.90
38604;DHT22;24924;50.054;8.790;2023-12-20T12:37:22;7.40;99.90
38604;DHT22;24924;50.054;8.790;2023-12-20T12:39:50;7.40;99.90
38604;DHT22;24924;50.054;8.790;2023-12-20T12:42:15;7.40;99.90
38604;DHT22;24924;50.054;8.790;2023-12-20T12:44:41;7.30;99.90
38604;DHT22;24924;50.054;8.790;2023-12-20T12:47:07;7.50;99.90
38604;DHT22;24924;50.054;8.790;2023-12-20T12:49:33;7.40;99.90
38604;DHT22;24924;50.054;8.790;2023-12-20T12:51:59;7.60;99.90
38604;DHT22;24924;50.054;8.790;2023-12-20T12:56:51;7.50;99.90
38604;DHT22;24924;50.054;8.790;2023-12-20T12:59:18;7.50;99.90
38604;DHT22;24924;50.054;8.790;2023-12-20T13:01:44;7.50;99.90
38604;DHT22;24924;50.054;8.790;2023-12-20T13:04:10;7.50;99.90
38604;DHT22;24924;50.054;8.790;2023-12-20T13:06:38;7.40;99.90
38604;DHT22;24924;50.054;8.790;2023-12-20T13:09:04;7.50;99.90
38604;DHT22;24924;50.054;8.790;2023-12-20T13:11:35;7.50;99.90
38604;DHT22;24924;50.054;8.790;2023-12-20T13:14:00;7.50;99.90
38604;DHT22;24924;50.054;8.790;2023-12-20T13:16:26;7.50;99.90
38604;DHT22;24924;50.054;8.790;2023-12-20T13:18:52;7.40;99.90
38604;DHT22;24924;50.054;8.790;2023-12-20T13:21:18;7.40;99.90
38604;DHT22;24924;50.054;8.790;2023-12-20T13:23:43;7.40;99.90
38604;DHT22;24924;50.054;8.790;2023-12-20T13:26:09;7.50;99.90
38604;DHT22;24924;50.054;8.790;2023-12-20T13:28:35;7.40;99.90
38604;DHT22;24924;50.054;8.790;2023-12-20T13:31:00;7.50;99.90
38604;DHT22;24924;50.054;8.790;2023-12-20T13:33:26;7.50;99.90
38604;DHT22;24924;50.054;8.790;2023-12-20T13:35:52;7.40;99.90
38604;DHT22;24924;50.054;8.790;2023-12-20T13:38:18;7.50;99.90
38604;DHT22;24924;50.054;8.790;2023-12-20T13:40:43;7.40;99.90
38604;DHT22;24924;50.054;8.790;2023-12-20T13:43:09;7.40;99.90
38604;DHT22;24924;50.054;8.790;2023-12-20T13:45:37;7.40;99.90
38604;DHT22;24924;50.054;8.790;2023-12-20T13:48:03;7.40;99.90
38604;DHT22;24924;50.054;8.790;2023-12-20T13:50:29;7.30;99.90
38604;DHT22;24924;50.054;8.790;2023-12-20T13:52:54;7.30;99.90
38604;DHT22;24924;50.054;8.790;2023-12-20T13:55:20;7.30;99.90
38604;DHT22;24924;50.054;8.790;2023-12-20T13:57:51;7.30;99.90
38604;DHT22;24924;50.054;8.790;2023-12-20T14:00:16;7.30;99.90
38604;DHT22;24924;50.054;8.790;2023-12-20T14:02:42;7.30;99.90
38604;DHT22;24924;50.054;8.790;2023-12-20T14:05:09;7.20;99.90
38604;DHT22;24924;50.054;8.790;2023-12-20T14:07:35;7.20;99.90
38604;DHT22;24924;50.054;8.790;2023-12-20T14:10:01;7.20;99.90
38604;DHT22;24924;50.054;8.790;2023-12-20T14:12:27;7.20;99.90
38604;DHT22;24924;50.054;8.790;2023-12-20T14:14:53;7.20;99.90
38604;DHT22;24924;50.054;8.790;2023-12-20T14:17:21;7.30;99.90
38604;DHT22;24924;50.054;8.790;2023-12-20T14:19:47;7.20;99.90
38604;DHT22;24924;50.054;8.790;2023-12-20T14:22:13;7.30;99.90
38604;DHT22;24924;50.054;8.790;2023-12-20T14:24:42;7.30;99.90
38604;DHT22;24924;50.054;8.790;2023-12-20T14:27:08;7.30;99.90
38604;DHT22;24924;50.054;8.790;2023-12-20T14:29:35;7.30;99.90
38604;DHT22;24924;50.054;8.790;2023-12-20T14:32:01;7.30;99.90
38604;DHT22;24924;50.054;8.790;2023-12-20T14:34:28;7.30;99.90
38604;DHT22;24924;50.054;8.790;2023-12-20T14:36:54;7.10;99.90
38604;DHT22;24924;50.054;8.790;2023-12-20T14:39:20;7.40;99.90
38604;DHT22;24924;50.054;8.790;2023-12-20T14:41:46;7.40;99.90
38604;DHT22;24924;50.054;8.790;2023-12-20T14:44:12;7.40;99.90
38604;DHT22;24924;50.054;8.790;2023-12-20T14:46:37;7.50;99.90
38604;DHT22;24924;50.054;8.790;2023-12-20T14:49:04;7.50;99.90
38604;DHT22;24924;50.054;8.790;2023-12-20T14:51:30;7.40;99.90
38604;DHT22;24924;50.054;8.790;2023-12-20T14:53:56;7.40;99.90
38604;DHT22;24924;50.054;8.790;2023-12-20T14:56:24;7.40;99.90
38604;DHT22;24924;50.054;8.790;2023-12-20T14:58:51;7.40;99.90
38604;DHT22;24924;50.054;8.790;2023-12-20T15:01:17;7.40;99.90
38604;DHT22;24924;50.054;8.790;2023-12-20T15:03:46;7.40;99.90
38604;DHT22;24924;50.054;8.790;2023-12-20T15:06:12;7.50;99.90
38604;DHT22;24924;50.054;8.790;2023-12-20T15:08:38;7.40;99.90
38604;DHT22;24924;50.054;8.790;2023-12-20T15:11:04;7.40;99.90
38604;DHT22;24924;50.054;8.790;2023-12-20T15:13:29;7.40;99.90
38604;DHT22;24924;50.054;8.790;2023-12-20T15:15:56;7.40;99.90
38604;DHT22;24924;50.054;8.790;2023-12-20T15:18:22;7.40;99.90
38604;DHT22;24924;50.054;8.790;2023-12-20T15:20:48;7.40;99.90
38604;DHT22;24924;50.054;8.790;2023-12-20T15:23:13;7.30;99.90
38604;DHT22;24924;50.054;8.790;2023-12-20T15:25:39;7.30;99.90
38604;DHT22;24924;50.054;8.790;2023-12-20T15:28:05;7.20;99.90
38604;DHT22;24924;50.054;8.790;2023-12-20T15:30:32;7.30;99.90
38604;DHT22;24924;50.054;8.790;2023-12-20T15:32:58;7.20;99.90
38604;DHT22;24924;50.054;8.790;2023-12-20T15:35:24;7.20;99.90
38604;DHT22;24924;50.054;8.790;2023-12-20T15:37:49;7.20;99.90
38604;DHT22;24924;50.054;8.790;2023-12-20T15:40:16;7.20;99.90
38604;DHT22;24924;50.054;8.790;2023-12-20T15:42:42;7.20;99.90
38604;DHT22;24924;50.054;8.790;2023-12-20T15:45:08;7.20;99.90